sensor_id;sensor_type;location;lat;lon;timestamp;P1;durP1;ratioP1;P2;durP2;ratioP2
44832;SDS011;30569;51.252;9.830;2022-08-11T00:01:42;138.73;;;131.65;;
44832;SDS011;30569;51.252;9.830;2022-08-11T00:04:13;121.15;;;114.72;;
44832;SDS011;30569;51.252;9.830;2022-08-11T00:06:40;126.60;;;120.10;;
44832;SDS011;30569;51.252;9.830;2022-08-11T00:09:12;130.55;;;123.97;;
44832;SDS011;30569;51.252;9.830;2022-08-11T00:11:51;92.35;;;87.28;;
44832;SDS011;30569;51.252;9.830;2022-08-11T00:14:19;110.22;;;104.65;;
44832;SDS011;30569;51.252;9.830;2022-08-11T00:16:56;107.10;;;101.43;;
44832;SDS011;30569;51.252;9.830;2022-08-11T00:19:29;96.00;;;90.90;;
44832;SDS011;30569;51.252;9.830;2022-08-11T00:21:57;100.30;;;95.10;;
44832;SDS011;30569;51.252;9.830;2022-08-11T00:24:23;103.60;;;98.00;;
44832;SDS011;30569;51.252;9.830;2022-08-11T00:26:56;82.57;;;77.70;;
44832;SDS011;30569;51.252;9.830;2022-08-11T00:29:21;98.22;;;92.90;;
44832;SDS011;30569;51.252;9.830;2022-08-11T00:31:48;84.65;;;80.18;;
44832;SDS011;30569;51.252;9.830;2022-08-11T00:34:16;83.93;;;79.30;;
44832;SDS011;30569;51.252;9.830;2022-08-11T00:36:52;77.38;;;73.35;;
44832;SDS011;30569;51.252;9.830;2022-08-11T00:39:24;79.50;;;75.00;;
44832;SDS011;30569;51.252;9.830;2022-08-11T00:42:13;82.07;;;77.72;;
44832;SDS011;30569;51.252;9.830;2022-08-11T00:50:10;46.33;;;43.53;;
44832;SDS011;30569;51.252;9.830;2022-08-11T00:52:53;50.03;;;47.25;;
44832;SDS011;30569;51.252;9.830;2022-08-11T00:55:35;46.38;;;43.53;;
44832;SDS011;30569;51.252;9.830;2022-08-11T00:58:34;51.88;;;48.47;;
44832;SDS011;30569;51.252;9.830;2022-08-11T01:04:19;35.90;;;33.58;;
44832;SDS011;30569;51.252;9.830;2022-08-11T01:09:43;38.13;;;35.92;;
44832;SDS011;30569;51.252;9.830;2022-08-11T01:29:21;32.17;;;29.95;;
44832;SDS011;30569;51.252;9.830;2022-08-11T01:43:15;31.77;;;29.80;;
44832;SDS011;30569;51.252;9.830;2022-08-11T01:49:09;36.28;;;34.10;;
44832;SDS011;30569;51.252;9.830;2022-08-11T01:57:30;13.70;;;12.25;;
44832;SDS011;30569;51.252;9.830;2022-08-11T02:00:06;16.75;;;15.45;;
44832;SDS011;30569;51.252;9.830;2022-08-11T02:03:00;20.90;;;19.45;;
44832;SDS011;30569;51.252;9.830;2022-08-11T02:11:29;13.68;;;12.32;;
44832;SDS011;30569;51.252;9.830;2022-08-11T02:23:00;16.60;;;15.40;;
44832;SDS011;30569;51.252;9.830;2022-08-11T02:25:52;12.80;;;11.90;;
44832;SDS011;30569;51.252;9.830;2022-08-11T02:28:28;16.05;;;14.68;;
44832;SDS011;30569;51.252;9.830;2022-08-11T02:31:18;12.15;;;11.07;;
44832;SDS011;30569;51.252;9.830;2022-08-11T02:36:37;12.85;;;11.68;;
44832;SDS011;30569;51.252;9.830;2022-08-11T02:39:11;14.25;;;13.18;;
44832;SDS011;30569;51.252;9.830;2022-08-11T02:44:53;10.65;;;9.73;;
44832;SDS011;30569;51.252;9.830;2022-08-11T02:50:16;9.85;;;8.95;;
44832;SDS011;30569;51.252;9.830;2022-08-11T02:52:53;10.50;;;9.43;;
44832;SDS011;30569;51.252;9.830;2022-08-11T02:58:21;11.23;;;9.65;;
44832;SDS011;30569;51.252;9.830;2022-08-11T03:01:27;11.70;;;10.25;;
44832;SDS011;30569;51.252;9.830;2022-08-11T03:03:54;8.70;;;7.43;;
44832;SDS011;30569;51.252;9.830;2022-08-11T03:09:45;10.05;;;9.18;;
44832;SDS011;30569;51.252;9.830;2022-08-11T03:12:23;8.82;;;8.07;;
44832;SDS011;30569;51.252;9.830;2022-08-11T03:18:22;7.18;;;6.28;;
44832;SDS011;30569;51.252;9.830;2022-08-11T03:21:11;9.85;;;9.02;;
44832;SDS011;30569;51.252;9.830;2022-08-11T03:23:47;8.60;;;7.60;;
44832;SDS011;30569;51.252;9.830;2022-08-11T03:26:24;10.38;;;9.48;;
44832;SDS011;30569;51.252;9.830;2022-08-11T03:34:20;12.18;;;6.85;;
44832;SDS011;30569;51.252;9.830;2022-08-11T03:42:19;11.02;;;9.95;;
44832;SDS011;30569;51.252;9.830;2022-08-11T03:59:06;10.60;;;9.65;;
44832;SDS011;30569;51.252;9.830;2022-08-11T04:24:57;12.27;;;10.60;;
44832;SDS011;30569;51.252;9.830;2022-08-11T04:39:35;53.35;;;50.10;;
44832;SDS011;30569;51.252;9.830;2022-08-11T04:42:29;113.85;;;107.95;;
44832;SDS011;30569;51.252;9.830;2022-08-11T04:54:46;137.15;;;129.80;;
44832;SDS011;30569;51.252;9.830;2022-08-11T04:57:50;169.88;;;161.18;;
44832;SDS011;30569;51.252;9.830;2022-08-11T05:03:39;226.32;;;214.65;;
44832;SDS011;30569;51.252;9.830;2022-08-11T05:06:25;279.10;;;264.75;;
44832;SDS011;30569;51.252;9.830;2022-08-11T05:09:08;329.90;;;312.27;;
44832;SDS011;30569;51.252;9.830;2022-08-11T05:14:33;445.27;;;419.25;;
44832;SDS011;30569;51.252;9.830;2022-08-11T05:17:56;425.48;;;401.25;;
44832;SDS011;30569;51.252;9.830;2022-08-11T05:21:07;267.80;;;252.05;;
44832;SDS011;30569;51.252;9.830;2022-08-11T05:24:11;224.02;;;211.60;;
44832;SDS011;30569;51.252;9.830;2022-08-11T05:27:02;193.23;;;182.88;;
44832;SDS011;30569;51.252;9.830;2022-08-11T05:30:05;169.35;;;160.02;;
44832;SDS011;30569;51.252;9.830;2022-08-11T05:32:56;167.13;;;157.75;;
44832;SDS011;30569;51.252;9.830;2022-08-11T05:36:01;203.05;;;192.40;;
44832;SDS011;30569;51.252;9.830;2022-08-11T05:38:36;214.87;;;203.27;;
44832;SDS011;30569;51.252;9.830;2022-08-11T05:41:22;419.23;;;394.88;;
44832;SDS011;30569;51.252;9.830;2022-08-11T05:44:08;379.42;;;357.70;;
44832;SDS011;30569;51.252;9.830;2022-08-11T05:46:53;387.80;;;367.15;;
44832;SDS011;30569;51.252;9.830;2022-08-11T05:49:38;465.10;;;439.23;;
44832;SDS011;30569;51.252;9.830;2022-08-11T05:52:24;556.42;;;523.03;;
44832;SDS011;30569;51.252;9.830;2022-08-11T05:55:10;602.35;;;566.58;;
44832;SDS011;30569;51.252;9.830;2022-08-11T05:57:58;688.63;;;645.75;;
44832;SDS011;30569;51.252;9.830;2022-08-11T06:00:28;706.50;;;660.67;;
44832;SDS011;30569;51.252;9.830;2022-08-11T06:02:58;766.13;;;713.50;;
44832;SDS011;30569;51.252;9.830;2022-08-11T06:05:34;815.97;;;758.75;;
44832;SDS011;30569;51.252;9.830;2022-08-11T06:08:01;819.70;;;757.15;;
44832;SDS011;30569;51.252;9.830;2022-08-11T06:10:32;1093.10;;;988.80;;
44832;SDS011;30569;51.252;9.830;2022-08-11T06:13:03;1295.80;;;999.90;;
44832;SDS011;30569;51.252;9.830;2022-08-11T06:15:31;1330.75;;;999.90;;
44832;SDS011;30569;51.252;9.830;2022-08-11T06:18:03;1968.25;;;999.90;;
44832;SDS011;30569;51.252;9.830;2022-08-11T06:20:29;1885.13;;;999.90;;
44832;SDS011;30569;51.252;9.830;2022-08-11T06:23:01;1996.82;;;999.90;;
44832;SDS011;30569;51.252;9.830;2022-08-11T06:25:29;1999.90;;;999.90;;
44832;SDS011;30569;51.252;9.830;2022-08-11T06:27:57;1999.90;;;999.90;;
44832;SDS011;30569;51.252;9.830;2022-08-11T06:30:35;1999.90;;;999.90;;
44832;SDS011;30569;51.252;9.830;2022-08-11T06:33:07;1999.90;;;999.90;;
44832;SDS011;30569;51.252;9.830;2022-08-11T06:41:33;1999.90;;;999.90;;
44832;SDS011;30569;51.252;9.830;2022-08-11T06:46:41;1999.90;;;999.90;;
44832;SDS011;30569;51.252;9.830;2022-08-11T06:49:11;1999.90;;;999.90;;
44832;SDS011;30569;51.252;9.830;2022-08-11T06:51:59;1999.90;;;999.90;;
44832;SDS011;30569;51.252;9.830;2022-08-11T06:54:29;1999.90;;;999.90;;
44832;SDS011;30569;51.252;9.830;2022-08-11T06:56:58;1999.90;;;999.90;;
44832;SDS011;30569;51.252;9.830;2022-08-11T06:59:43;1999.90;;;999.90;;
44832;SDS011;30569;51.252;9.830;2022-08-11T07:02:42;1999.90;;;999.90;;
44832;SDS011;30569;51.252;9.830;2022-08-11T07:05:25;1999.90;;;999.90;;
44832;SDS011;30569;51.252;9.830;2022-08-11T07:14:27;1999.90;;;999.90;;
44832;SDS011;30569;51.252;9.830;2022-08-11T07:17:14;1999.90;;;999.90;;
44832;SDS011;30569;51.252;9.830;2022-08-11T07:19:52;1999.90;;;999.90;;
44832;SDS011;30569;51.252;9.830;2022-08-11T07:22:40;1176.10;;;999.90;;
44832;SDS011;30569;51.252;9.830;2022-08-11T07:25:28;1138.15;;;999.90;;
44832;SDS011;30569;51.252;9.830;2022-08-11T07:28:21;1017.65;;;921.72;;
44832;SDS011;30569;51.252;9.830;2022-08-11T07:31:12;1023.35;;;927.72;;
44832;SDS011;30569;51.252;9.830;2022-08-11T07:33:45;818.88;;;748.42;;
44832;SDS011;30569;51.252;9.830;2022-08-11T07:36:14;979.35;;;892.53;;
44832;SDS011;30569;51.252;9.830;2022-08-11T07:38:46;601.28;;;554.42;;
44832;SDS011;30569;51.252;9.830;2022-08-11T07:41:19;550.95;;;511.48;;
44832;SDS011;30569;51.252;9.830;2022-08-11T07:43:48;592.40;;;549.83;;
44832;SDS011;30569;51.252;9.830;2022-08-11T07:46:16;424.25;;;394.83;;
44832;SDS011;30569;51.252;9.830;2022-08-11T07:49:16;444.27;;;413.88;;
44832;SDS011;30569;51.252;9.830;2022-08-11T07:52:00;522.50;;;485.63;;
44832;SDS011;30569;51.252;9.830;2022-08-11T07:54:45;619.83;;;575.97;;
44832;SDS011;30569;51.252;9.830;2022-08-11T07:57:11;583.00;;;542.67;;
44832;SDS011;30569;51.252;9.830;2022-08-11T07:59:55;737.85;;;684.60;;
44832;SDS011;30569;51.252;9.830;2022-08-11T08:02:41;826.22;;;760.15;;
44832;SDS011;30569;51.252;9.830;2022-08-11T08:05:26;899.17;;;824.45;;
44832;SDS011;30569;51.252;9.830;2022-08-11T08:08:12;806.67;;;747.35;;
44832;SDS011;30569;51.252;9.830;2022-08-11T08:10:58;863.30;;;793.95;;
44832;SDS011;30569;51.252;9.830;2022-08-11T08:13:44;832.22;;;771.35;;
44832;SDS011;30569;51.252;9.830;2022-08-11T08:16:29;995.17;;;907.72;;
44832;SDS011;30569;51.252;9.830;2022-08-11T08:19:15;954.42;;;874.60;;
44832;SDS011;30569;51.252;9.830;2022-08-11T08:21:43;990.67;;;902.47;;
44832;SDS011;30569;51.252;9.830;2022-08-11T08:24:09;894.58;;;823.80;;
44832;SDS011;30569;51.252;9.830;2022-08-11T08:26:35;1049.32;;;953.38;;
44832;SDS011;30569;51.252;9.830;2022-08-11T08:29:20;1021.10;;;928.78;;
44832;SDS011;30569;51.252;9.830;2022-08-11T08:32:08;1027.93;;;937.28;;
44832;SDS011;30569;51.252;9.830;2022-08-11T08:34:35;1126.13;;;997.13;;
44832;SDS011;30569;51.252;9.830;2022-08-11T08:37:02;1184.43;;;999.90;;
44832;SDS011;30569;51.252;9.830;2022-08-11T08:39:29;1101.32;;;991.15;;
44832;SDS011;30569;51.252;9.830;2022-08-11T08:41:58;1158.05;;;999.90;;
44832;SDS011;30569;51.252;9.830;2022-08-11T08:44:28;1141.30;;;999.90;;
44832;SDS011;30569;51.252;9.830;2022-08-11T08:46:58;1190.32;;;999.90;;
44832;SDS011;30569;51.252;9.830;2022-08-11T08:49:25;1286.05;;;999.90;;
44832;SDS011;30569;51.252;9.830;2022-08-11T08:51:59;1269.00;;;999.90;;
44832;SDS011;30569;51.252;9.830;2022-08-11T08:54:37;1374.63;;;999.90;;
44832;SDS011;30569;51.252;9.830;2022-08-11T08:57:04;1734.65;;;999.90;;
44832;SDS011;30569;51.252;9.830;2022-08-11T08:59:32;1999.90;;;999.90;;
44832;SDS011;30569;51.252;9.830;2022-08-11T09:02:03;1999.90;;;999.90;;
44832;SDS011;30569;51.252;9.830;2022-08-11T09:04:30;1999.90;;;999.90;;
44832;SDS011;30569;51.252;9.830;2022-08-11T09:06:58;1999.90;;;999.90;;
44832;SDS011;30569;51.252;9.830;2022-08-11T09:09:27;1999.90;;;999.90;;
44832;SDS011;30569;51.252;9.830;2022-08-11T09:11:53;1999.90;;;999.90;;
44832;SDS011;30569;51.252;9.830;2022-08-11T09:14:20;1999.90;;;999.90;;
44832;SDS011;30569;51.252;9.830;2022-08-11T09:17:13;1999.90;;;999.90;;
44832;SDS011;30569;51.252;9.830;2022-08-11T09:19:39;1999.90;;;999.90;;
44832;SDS011;30569;51.252;9.830;2022-08-11T09:22:05;1999.90;;;999.90;;
44832;SDS011;30569;51.252;9.830;2022-08-11T09:24:50;1999.90;;;999.90;;
44832;SDS011;30569;51.252;9.830;2022-08-11T09:27:34;1999.90;;;999.90;;
44832;SDS011;30569;51.252;9.830;2022-08-11T09:30:04;1999.90;;;999.90;;
44832;SDS011;30569;51.252;9.830;2022-08-11T09:32:35;1999.90;;;999.90;;
44832;SDS011;30569;51.252;9.830;2022-08-11T09:35:02;1999.90;;;999.90;;
44832;SDS011;30569;51.252;9.830;2022-08-11T09:37:29;1999.90;;;999.90;;
44832;SDS011;30569;51.252;9.830;2022-08-11T09:40:14;1999.90;;;999.90;;
44832;SDS011;30569;51.252;9.830;2022-08-11T09:42:55;1999.90;;;999.90;;
44832;SDS011;30569;51.252;9.830;2022-08-11T09:45:44;1999.90;;;999.90;;
44832;SDS011;30569;51.252;9.830;2022-08-11T09:48:15;1999.90;;;999.90;;
44832;SDS011;30569;51.252;9.830;2022-08-11T09:50:47;1999.90;;;999.90;;
44832;SDS011;30569;51.252;9.830;2022-08-11T09:53:15;1999.90;;;999.90;;
44832;SDS011;30569;51.252;9.830;2022-08-11T09:55:44;1999.90;;;999.90;;
44832;SDS011;30569;51.252;9.830;2022-08-11T09:58:12;1999.90;;;999.90;;
44832;SDS011;30569;51.252;9.830;2022-08-11T10:00:40;1999.90;;;999.90;;
44832;SDS011;30569;51.252;9.830;2022-08-11T10:03:25;1999.90;;;999.90;;
44832;SDS011;30569;51.252;9.830;2022-08-11T10:05:53;1999.90;;;999.90;;
44832;SDS011;30569;51.252;9.830;2022-08-11T10:08:41;1999.90;;;999.90;;
44832;SDS011;30569;51.252;9.830;2022-08-11T10:11:08;1999.90;;;999.90;;
44832;SDS011;30569;51.252;9.830;2022-08-11T10:13:36;1999.90;;;999.90;;
44832;SDS011;30569;51.252;9.830;2022-08-11T10:16:25;1999.90;;;999.90;;
44832;SDS011;30569;51.252;9.830;2022-08-11T10:18:53;1999.90;;;999.90;;
44832;SDS011;30569;51.252;9.830;2022-08-11T10:21:29;1999.90;;;999.90;;
44832;SDS011;30569;51.252;9.830;2022-08-11T10:24:01;1999.90;;;999.90;;
44832;SDS011;30569;51.252;9.830;2022-08-11T10:27:06;1999.90;;;999.90;;
44832;SDS011;30569;51.252;9.830;2022-08-11T10:29:36;1999.90;;;999.90;;
44832;SDS011;30569;51.252;9.830;2022-08-11T10:32:25;1999.90;;;999.90;;
44832;SDS011;30569;51.252;9.830;2022-08-11T10:35:13;1703.70;;;999.90;;
44832;SDS011;30569;51.252;9.830;2022-08-11T10:37:41;1669.15;;;999.90;;
44832;SDS011;30569;51.252;9.830;2022-08-11T10:40:12;1651.47;;;999.90;;
44832;SDS011;30569;51.252;9.830;2022-08-11T10:42:41;1631.72;;;999.90;;
44832;SDS011;30569;51.252;9.830;2022-08-11T10:45:44;1700.60;;;999.90;;
44832;SDS011;30569;51.252;9.830;2022-08-11T10:48:33;1852.88;;;999.90;;
44832;SDS011;30569;51.252;9.830;2022-08-11T10:51:01;1642.20;;;999.90;;
44832;SDS011;30569;51.252;9.830;2022-08-11T10:53:40;1726.22;;;999.90;;
44832;SDS011;30569;51.252;9.830;2022-08-11T10:56:26;1672.10;;;999.90;;
44832;SDS011;30569;51.252;9.830;2022-08-11T10:59:13;1633.00;;;999.90;;
44832;SDS011;30569;51.252;9.830;2022-08-11T11:01:40;1675.85;;;999.90;;
44832;SDS011;30569;51.252;9.830;2022-08-11T11:04:14;1693.95;;;999.90;;
44832;SDS011;30569;51.252;9.830;2022-08-11T11:07:02;1654.32;;;999.90;;
44832;SDS011;30569;51.252;9.830;2022-08-11T11:09:29;1680.40;;;999.90;;
44832;SDS011;30569;51.252;9.830;2022-08-11T11:12:06;1791.03;;;999.90;;
44832;SDS011;30569;51.252;9.830;2022-08-11T11:14:54;1726.35;;;999.90;;
44832;SDS011;30569;51.252;9.830;2022-08-11T11:17:43;1692.03;;;999.90;;
44832;SDS011;30569;51.252;9.830;2022-08-11T11:20:25;1665.20;;;999.90;;
44832;SDS011;30569;51.252;9.830;2022-08-11T11:23:15;1606.30;;;999.90;;
44832;SDS011;30569;51.252;9.830;2022-08-11T11:37:24;1731.07;;;999.90;;
44832;SDS011;30569;51.252;9.830;2022-08-11T11:39:53;1690.85;;;999.90;;
44832;SDS011;30569;51.252;9.830;2022-08-11T11:42:21;1683.30;;;999.90;;
44832;SDS011;30569;51.252;9.830;2022-08-11T11:44:47;1616.43;;;999.90;;
44832;SDS011;30569;51.252;9.830;2022-08-11T11:47:14;1670.60;;;999.90;;
44832;SDS011;30569;51.252;9.830;2022-08-11T11:49:43;1919.65;;;999.90;;
44832;SDS011;30569;51.252;9.830;2022-08-11T11:52:17;1660.53;;;999.90;;
44832;SDS011;30569;51.252;9.830;2022-08-11T11:54:45;1661.85;;;999.90;;
44832;SDS011;30569;51.252;9.830;2022-08-11T11:57:14;1687.70;;;999.90;;
44832;SDS011;30569;51.252;9.830;2022-08-11T12:00:00;1644.40;;;999.90;;
44832;SDS011;30569;51.252;9.830;2022-08-11T12:02:46;1683.43;;;999.90;;
44832;SDS011;30569;51.252;9.830;2022-08-11T12:05:12;1726.68;;;999.90;;
44832;SDS011;30569;51.252;9.830;2022-08-11T12:07:39;1651.03;;;999.90;;
44832;SDS011;30569;51.252;9.830;2022-08-11T12:10:23;1664.63;;;999.90;;
44832;SDS011;30569;51.252;9.830;2022-08-11T12:12:50;1690.47;;;999.90;;
44832;SDS011;30569;51.252;9.830;2022-08-11T12:15:34;1589.25;;;999.90;;
44832;SDS011;30569;51.252;9.830;2022-08-11T12:18:01;1667.47;;;999.90;;
44832;SDS011;30569;51.252;9.830;2022-08-11T12:20:28;1685.88;;;999.90;;
44832;SDS011;30569;51.252;9.830;2022-08-11T12:22:54;1639.30;;;999.90;;
44832;SDS011;30569;51.252;9.830;2022-08-11T12:25:39;1631.88;;;999.90;;
44832;SDS011;30569;51.252;9.830;2022-08-11T12:28:25;1725.97;;;999.90;;
44832;SDS011;30569;51.252;9.830;2022-08-11T12:30:51;1622.53;;;999.90;;
44832;SDS011;30569;51.252;9.830;2022-08-11T12:33:18;1632.35;;;999.90;;
44832;SDS011;30569;51.252;9.830;2022-08-11T12:35:45;1730.82;;;999.90;;
44832;SDS011;30569;51.252;9.830;2022-08-11T12:38:16;1727.47;;;999.90;;
44832;SDS011;30569;51.252;9.830;2022-08-11T12:40:44;1663.15;;;999.90;;
44832;SDS011;30569;51.252;9.830;2022-08-11T12:43:30;1702.68;;;999.90;;
44832;SDS011;30569;51.252;9.830;2022-08-11T12:46:17;1616.53;;;999.90;;
44832;SDS011;30569;51.252;9.830;2022-08-11T12:48:47;1627.13;;;999.90;;
44832;SDS011;30569;51.252;9.830;2022-08-11T12:51:35;1650.15;;;999.90;;
44832;SDS011;30569;51.252;9.830;2022-08-11T12:57:16;1636.68;;;999.90;;
44832;SDS011;30569;51.252;9.830;2022-08-11T13:00:06;1628.30;;;999.90;;
44832;SDS011;30569;51.252;9.830;2022-08-11T13:02:52;1674.25;;;999.90;;
44832;SDS011;30569;51.252;9.830;2022-08-11T13:05:38;1596.25;;;999.90;;
44832;SDS011;30569;51.252;9.830;2022-08-11T13:08:06;1637.18;;;999.90;;
44832;SDS011;30569;51.252;9.830;2022-08-11T13:10:32;1572.82;;;999.90;;
44832;SDS011;30569;51.252;9.830;2022-08-11T13:13:18;1601.57;;;999.90;;
44832;SDS011;30569;51.252;9.830;2022-08-11T13:15:47;1627.72;;;999.90;;
44832;SDS011;30569;51.252;9.830;2022-08-11T13:18:17;1656.72;;;999.90;;
44832;SDS011;30569;51.252;9.830;2022-08-11T13:20:47;1612.53;;;999.90;;
44832;SDS011;30569;51.252;9.830;2022-08-11T13:23:15;1606.35;;;999.90;;
44832;SDS011;30569;51.252;9.830;2022-08-11T13:25:41;1722.75;;;999.90;;
44832;SDS011;30569;51.252;9.830;2022-08-11T13:28:08;1594.75;;;999.90;;
44832;SDS011;30569;51.252;9.830;2022-08-11T13:30:36;1610.32;;;999.90;;
44832;SDS011;30569;51.252;9.830;2022-08-11T13:33:21;1623.55;;;999.90;;
44832;SDS011;30569;51.252;9.830;2022-08-11T13:35:50;1656.95;;;999.90;;
44832;SDS011;30569;51.252;9.830;2022-08-11T13:38:18;1600.78;;;999.90;;
44832;SDS011;30569;51.252;9.830;2022-08-11T13:40:46;1678.28;;;999.90;;
44832;SDS011;30569;51.252;9.830;2022-08-11T13:43:13;1744.85;;;999.90;;
44832;SDS011;30569;51.252;9.830;2022-08-11T13:45:40;1629.95;;;999.90;;
44832;SDS011;30569;51.252;9.830;2022-08-11T13:48:08;1643.68;;;999.90;;
44832;SDS011;30569;51.252;9.830;2022-08-11T13:50:36;1736.25;;;999.90;;
44832;SDS011;30569;51.252;9.830;2022-08-11T13:53:22;1716.05;;;999.90;;
44832;SDS011;30569;51.252;9.830;2022-08-11T13:55:49;1631.63;;;999.90;;
44832;SDS011;30569;51.252;9.830;2022-08-11T13:58:15;1676.90;;;999.90;;
44832;SDS011;30569;51.252;9.830;2022-08-11T14:00:49;1715.90;;;999.90;;
44832;SDS011;30569;51.252;9.830;2022-08-11T14:03:16;1754.78;;;999.90;;
44832;SDS011;30569;51.252;9.830;2022-08-11T14:05:45;1668.80;;;999.90;;
44832;SDS011;30569;51.252;9.830;2022-08-11T14:08:19;1702.40;;;999.90;;
44832;SDS011;30569;51.252;9.830;2022-08-11T14:10:49;1722.82;;;999.90;;
44832;SDS011;30569;51.252;9.830;2022-08-11T14:13:36;1740.72;;;999.90;;
44832;SDS011;30569;51.252;9.830;2022-08-11T14:16:08;1793.63;;;999.90;;
44832;SDS011;30569;51.252;9.830;2022-08-11T14:18:46;1681.28;;;999.90;;
44832;SDS011;30569;51.252;9.830;2022-08-11T14:21:15;1655.82;;;999.90;;
44832;SDS011;30569;51.252;9.830;2022-08-11T14:24:01;1715.78;;;999.90;;
44832;SDS011;30569;51.252;9.830;2022-08-11T14:26:28;1770.15;;;999.90;;
44832;SDS011;30569;51.252;9.830;2022-08-11T14:29:03;1729.07;;;999.90;;
44832;SDS011;30569;51.252;9.830;2022-08-11T14:31:38;1667.85;;;999.90;;
44832;SDS011;30569;51.252;9.830;2022-08-11T14:34:08;1762.60;;;999.90;;
44832;SDS011;30569;51.252;9.830;2022-08-11T14:36:41;1671.88;;;999.90;;
44832;SDS011;30569;51.252;9.830;2022-08-11T14:39:10;1803.78;;;999.90;;
44832;SDS011;30569;51.252;9.830;2022-08-11T14:41:38;1803.28;;;999.90;;
44832;SDS011;30569;51.252;9.830;2022-08-11T14:44:25;1690.43;;;999.90;;
44832;SDS011;30569;51.252;9.830;2022-08-11T14:47:10;1693.20;;;999.90;;
44832;SDS011;30569;51.252;9.830;2022-08-11T14:49:39;1722.82;;;999.90;;
44832;SDS011;30569;51.252;9.830;2022-08-11T14:52:07;1706.35;;;999.90;;
44832;SDS011;30569;51.252;9.830;2022-08-11T14:54:35;1782.25;;;999.90;;
44832;SDS011;30569;51.252;9.830;2022-08-11T14:57:20;1714.43;;;999.90;;
44832;SDS011;30569;51.252;9.830;2022-08-11T14:59:47;1677.80;;;999.90;;
44832;SDS011;30569;51.252;9.830;2022-08-11T15:02:14;1671.55;;;999.90;;
44832;SDS011;30569;51.252;9.830;2022-08-11T15:04:59;1656.10;;;999.90;;
44832;SDS011;30569;51.252;9.830;2022-08-11T15:07:27;1649.60;;;999.90;;
44832;SDS011;30569;51.252;9.830;2022-08-11T15:09:56;1678.35;;;999.90;;
44832;SDS011;30569;51.252;9.830;2022-08-11T15:12:23;1670.35;;;999.90;;
44832;SDS011;30569;51.252;9.830;2022-08-11T15:14:49;1737.20;;;999.90;;
44832;SDS011;30569;51.252;9.830;2022-08-11T15:17:34;1661.85;;;999.90;;
44832;SDS011;30569;51.252;9.830;2022-08-11T15:20:03;1690.07;;;999.90;;
44832;SDS011;30569;51.252;9.830;2022-08-11T15:22:53;1718.28;;;999.90;;
44832;SDS011;30569;51.252;9.830;2022-08-11T15:25:37;1733.88;;;999.90;;
44832;SDS011;30569;51.252;9.830;2022-08-11T15:28:06;1742.60;;;999.90;;
44832;SDS011;30569;51.252;9.830;2022-08-11T15:30:54;1727.13;;;999.90;;
44832;SDS011;30569;51.252;9.830;2022-08-11T15:33:40;1732.40;;;999.90;;
44832;SDS011;30569;51.252;9.830;2022-08-11T15:36:28;1733.07;;;999.90;;
44832;SDS011;30569;51.252;9.830;2022-08-11T15:41:44;1786.15;;;999.90;;
44832;SDS011;30569;51.252;9.830;2022-08-11T15:44:39;1730.00;;;999.90;;
44832;SDS011;30569;51.252;9.830;2022-08-11T15:47:26;1893.15;;;999.90;;
44832;SDS011;30569;51.252;9.830;2022-08-11T15:49:57;1754.95;;;999.90;;
44832;SDS011;30569;51.252;9.830;2022-08-11T15:52:27;1728.25;;;999.90;;
44832;SDS011;30569;51.252;9.830;2022-08-11T15:54:56;1776.15;;;999.90;;
44832;SDS011;30569;51.252;9.830;2022-08-11T15:57:26;1792.85;;;999.90;;
44832;SDS011;30569;51.252;9.830;2022-08-11T16:00:12;1753.00;;;999.90;;
44832;SDS011;30569;51.252;9.830;2022-08-11T16:02:57;1728.32;;;999.90;;
44832;SDS011;30569;51.252;9.830;2022-08-11T16:05:48;1739.15;;;999.90;;
44832;SDS011;30569;51.252;9.830;2022-08-11T16:08:15;1774.55;;;999.90;;
44832;SDS011;30569;51.252;9.830;2022-08-11T16:10:43;1757.93;;;999.90;;
44832;SDS011;30569;51.252;9.830;2022-08-11T16:13:10;1745.28;;;999.90;;
44832;SDS011;30569;51.252;9.830;2022-08-11T16:15:46;1953.20;;;999.90;;
44832;SDS011;30569;51.252;9.830;2022-08-11T16:21:31;1709.25;;;999.90;;
44832;SDS011;30569;51.252;9.830;2022-08-11T16:24:00;1717.10;;;999.90;;
44832;SDS011;30569;51.252;9.830;2022-08-11T16:26:29;1739.63;;;999.90;;
44832;SDS011;30569;51.252;9.830;2022-08-11T16:28:57;1759.13;;;999.90;;
44832;SDS011;30569;51.252;9.830;2022-08-11T16:31:25;1730.65;;;999.90;;
44832;SDS011;30569;51.252;9.830;2022-08-11T16:33:52;1821.88;;;999.90;;
44832;SDS011;30569;51.252;9.830;2022-08-11T16:36:19;1765.30;;;999.90;;
44832;SDS011;30569;51.252;9.830;2022-08-11T16:39:06;1748.63;;;999.90;;
44832;SDS011;30569;51.252;9.830;2022-08-11T16:41:33;1790.60;;;999.90;;
44832;SDS011;30569;51.252;9.830;2022-08-11T16:44:19;1757.78;;;999.90;;
44832;SDS011;30569;51.252;9.830;2022-08-11T16:47:13;1795.20;;;999.90;;
44832;SDS011;30569;51.252;9.830;2022-08-11T16:49:44;1764.47;;;999.90;;
44832;SDS011;30569;51.252;9.830;2022-08-11T16:52:13;1772.28;;;999.90;;
44832;SDS011;30569;51.252;9.830;2022-08-11T16:54:39;1821.15;;;999.90;;
44832;SDS011;30569;51.252;9.830;2022-08-11T16:57:17;1780.50;;;999.90;;
44832;SDS011;30569;51.252;9.830;2022-08-11T17:00:06;1735.10;;;999.90;;
44832;SDS011;30569;51.252;9.830;2022-08-11T17:02:36;1722.50;;;999.90;;
44832;SDS011;30569;51.252;9.830;2022-08-11T17:05:24;1705.82;;;999.90;;
44832;SDS011;30569;51.252;9.830;2022-08-11T17:08:08;1714.25;;;999.90;;
44832;SDS011;30569;51.252;9.830;2022-08-11T17:10:59;1718.60;;;999.90;;
44832;SDS011;30569;51.252;9.830;2022-08-11T17:13:47;1703.80;;;999.90;;
44832;SDS011;30569;51.252;9.830;2022-08-11T17:16:19;1760.78;;;999.90;;
44832;SDS011;30569;51.252;9.830;2022-08-11T17:18:50;1784.97;;;999.90;;
44832;SDS011;30569;51.252;9.830;2022-08-11T17:21:32;1682.57;;;999.90;;
44832;SDS011;30569;51.252;9.830;2022-08-11T17:24:21;1651.10;;;999.90;;
44832;SDS011;30569;51.252;9.830;2022-08-11T17:26:48;1677.50;;;999.90;;
44832;SDS011;30569;51.252;9.830;2022-08-11T17:31:50;1668.43;;;999.90;;
44832;SDS011;30569;51.252;9.830;2022-08-11T17:34:36;1694.82;;;999.90;;
44832;SDS011;30569;51.252;9.830;2022-08-11T17:37:22;1647.55;;;999.90;;
44832;SDS011;30569;51.252;9.830;2022-08-11T17:39:50;1619.88;;;999.90;;
44832;SDS011;30569;51.252;9.830;2022-08-11T17:42:17;1592.97;;;999.90;;
44832;SDS011;30569;51.252;9.830;2022-08-11T17:45:02;1680.10;;;999.90;;
44832;SDS011;30569;51.252;9.830;2022-08-11T17:47:49;1629.50;;;999.90;;
44832;SDS011;30569;51.252;9.830;2022-08-11T17:50:45;1571.20;;;999.90;;
44832;SDS011;30569;51.252;9.830;2022-08-11T17:53:13;1587.28;;;999.90;;
44832;SDS011;30569;51.252;9.830;2022-08-11T17:55:58;1530.03;;;999.90;;
44832;SDS011;30569;51.252;9.830;2022-08-11T17:58:58;1640.88;;;999.90;;
44832;SDS011;30569;51.252;9.830;2022-08-11T18:01:43;1492.22;;;999.90;;